Currituck, North Carolina
Current Conditions -  °F | °C
As of 9:35 AM on Thursday 23 Oct 2014 (Local Time) from KONX Reporting Station
Scattered Clouds Scattered Clouds  
Wind Chill: 55°   Ceiling: Unl
Heat Index: 55°   Visibility: 10mi
Dew Point: 42°   Wind: 8mph
Humidity: 63%   Direction: 300°WNW
Pressure: 29.91"   Gusts: 18mph
Location:  36.45°N, 76.02°W
Report Text: KONX 231335Z AUTO 30007G16KT 270V330 10SM SCT040 13/06 A2991 RMK AO2 T01250056
Loading
Personal Weather Stations






























Interactive Weather Map
Tropical Storm Tracking
New forecast layout! Learn more

10-Day Weather Forecast

Advertisements
Track Severe Weather on mobile